Time;durP1;ratioP1;P1;durP2;ratioP2;P2;SDS_P1;SDS_P2;PMS_P1;PMS_P2;Temp;Humidity;BMP_temperature;BMP_pressure;BME280_temperature;BME280_humidity;BME280_pressure;Samples;Min_cycle;Max_cycle;Signal;HPM_P1;HPM_P2
2024/01/24 00:00:12;;;;;;;4.50;1.08;;;;;;;;;;4935310;29;20516;-60
2024/01/24 00:02:38;;;;;;;4.65;0.82;;;;;;;;;;4937958;29;20038;-60
2024/01/24 00:05:03;;;;;;;6.63;1.48;;;;;;;;;;4936240;29;20039;-60
2024/01/24 00:07:29;;;;;;;4.78;1.90;;;;;;;;;;4939472;29;20040;-61
2024/01/24 00:09:55;;;;;;;4.78;1.10;;;;;;;;;;4927570;28;20036;-59
2024/01/24 00:12:20;;;;;;;4.40;1.35;;;;;;;;;;4914414;29;20390;-59
2024/01/24 00:14:46;;;;;;;5.00;1.45;;;;;;;;;;4908515;29;20423;-57
2024/01/24 00:17:11;;;;;;;4.45;2.72;;;;;;;;;;4919992;29;20084;-58
2024/01/24 00:19:37;;;;;;;3.42;0.98;;;;;;;;;;4922522;29;20577;-60
2024/01/24 00:22:03;;;;;;;3.03;1.48;;;;;;;;;;4935933;29;20035;-59
2024/01/24 00:24:28;;;;;;;4.57;1.58;;;;;;;;;;4929847;29;20044;-59
2024/01/24 00:26:54;;;;;;;4.43;0.63;;;;;;;;;;4914102;29;20020;-59
2024/01/24 00:29:19;;;;;;;1.60;0.90;;;;;;;;;;4919828;29;20047;-59
2024/01/24 00:31:47;;;;;;;2.83;1.42;;;;;;;;;;4932396;29;20024;-56
2024/01/24 00:34:12;;;;;;;3.83;1.60;;;;;;;;;;4928574;29;20507;-60
2024/01/24 00:36:38;;;;;;;5.68;1.25;;;;;;;;;;4914719;29;20047;-60
2024/01/24 00:39:04;;;;;;;4.13;1.23;;;;;;;;;;4919663;29;20032;-60
2024/01/24 00:41:29;;;;;;;3.60;1.33;;;;;;;;;;4941512;29;20023;-60
2024/01/24 00:43:54;;;;;;;5.22;1.23;;;;;;;;;;4937226;29;20088;-58
2024/01/24 00:46:20;;;;;;;3.53;1.00;;;;;;;;;;4936332;29;20023;-59
2024/01/24 00:48:45;;;;;;;5.78;1.33;;;;;;;;;;4935311;28;20106;-60
2024/01/24 00:51:11;;;;;;;7.40;2.58;;;;;;;;;;4919035;29;20032;-58
2024/01/24 00:53:37;;;;;;;6.75;1.70;;;;;;;;;;4914475;29;20024;-59
2024/01/24 00:56:03;;;;;;;4.43;1.65;;;;;;;;;;4933666;29;20046;-58
2024/01/24 00:58:29;;;;;;;5.20;1.67;;;;;;;;;;4936969;29;20393;-60
2024/01/24 01:00:55;;;;;;;4.60;1.75;;;;;;;;;;4929465;29;20068;-60
2024/01/24 01:03:20;;;;;;;3.30;1.70;;;;;;;;;;4931469;29;20027;-60
2024/01/24 01:05:46;;;;;;;6.28;1.85;;;;;;;;;;4936524;29;20533;-59
2024/01/24 01:08:13;;;;;;;6.18;1.42;;;;;;;;;;4936673;29;20039;-59
2024/01/24 01:10:38;;;;;;;2.33;0.95;;;;;;;;;;4938167;28;20040;-58
2024/01/24 01:13:04;;;;;;;5.00;2.50;;;;;;;;;;4940918;29;20078;-60
2024/01/24 01:15:29;;;;;;;5.65;1.75;;;;;;;;;;4929143;29;20122;-59
2024/01/24 01:17:55;;;;;;;5.00;1.63;;;;;;;;;;4940525;29;20106;-59
2024/01/24 01:20:20;;;;;;;9.50;2.33;;;;;;;;;;4924821;29;20406;-58
2024/01/24 01:22:46;;;;;;;7.22;2.40;;;;;;;;;;4915390;29;20051;-59
2024/01/24 01:25:12;;;;;;;4.43;1.60;;;;;;;;;;4917149;29;20080;-59
2024/01/24 01:27:37;;;;;;;5.85;1.83;;;;;;;;;;4917385;29;20043;-58
2024/01/24 01:30:03;;;;;;;3.20;1.73;;;;;;;;;;4914347;29;20044;-59
2024/01/24 01:32:29;;;;;;;6.53;2.28;;;;;;;;;;4917612;29;20110;-58
2024/01/24 01:34:54;;;;;;;4.82;1.23;;;;;;;;;;4909728;29;20059;-56
2024/01/24 01:37:23;;;;;;;4.38;1.80;;;;;;;;;;4917427;29;20038;-59
2024/01/24 01:39:51;;;;;;;3.67;1.13;;;;;;;;;;4917934;29;20379;-59
2024/01/24 01:42:17;;;;;;;3.97;2.10;;;;;;;;;;4917943;29;20031;-58
2024/01/24 01:44:48;;;;;;;6.43;2.28;;;;;;;;;;4909936;29;20056;-58
2024/01/24 01:47:15;;;;;;;4.70;2.25;;;;;;;;;;4912653;29;20035;-59
2024/01/24 01:49:43;;;;;;;9.50;3.97;;;;;;;;;;4925611;28;20048;-59
2024/01/24 01:52:09;;;;;;;8.90;4.00;;;;;;;;;;4936965;29;20027;-59
2024/01/24 01:54:35;;;;;;;10.10;4.63;;;;;;;;;;4930725;29;20430;-59
2024/01/24 01:57:01;;;;;;;10.77;4.45;;;;;;;;;;4916025;29;20040;-58
2024/01/24 01:59:27;;;;;;;8.52;4.28;;;;;;;;;;4918652;29;20044;-59
2024/01/24 02:01:56;;;;;;;7.95;3.33;;;;;;;;;;4916612;29;20028;-58
2024/01/24 02:04:23;;;;;;;7.70;3.00;;;;;;;;;;4923557;29;20509;-59
2024/01/24 02:06:48;;;;;;;4.75;2.17;;;;;;;;;;4937540;29;20034;-59
2024/01/24 02:09:14;;;;;;;6.80;2.95;;;;;;;;;;4935399;29;20047;-59
2024/01/24 02:11:40;;;;;;;6.43;2.15;;;;;;;;;;4932220;29;20036;-59
2024/01/24 02:14:06;;;;;;;2.70;2.13;;;;;;;;;;4932251;29;20028;-60
2024/01/24 02:16:31;;;;;;;4.70;2.85;;;;;;;;;;4917790;29;20144;-59
2024/01/24 02:18:57;;;;;;;5.07;1.63;;;;;;;;;;4919403;29;20032;-57
2024/01/24 02:21:22;;;;;;;5.70;1.67;;;;;;;;;;4926413;29;20035;-58
2024/01/24 02:23:48;;;;;;;3.55;1.33;;;;;;;;;;4930880;29;20024;-59
2024/01/24 02:26:13;;;;;;;3.97;1.30;;;;;;;;;;4911848;29;20725;-59
2024/01/24 02:28:39;;;;;;;3.20;1.50;;;;;;;;;;4920231;29;20032;-60
2024/01/24 02:31:04;;;;;;;3.83;1.35;;;;;;;;;;4917612;29;20047;-59
2024/01/24 02:33:30;;;;;;;5.03;1.75;;;;;;;;;;4916533;29;20028;-58
2024/01/24 02:35:55;;;;;;;4.78;1.60;;;;;;;;;;4916465;29;20116;-59
2024/01/24 02:38:20;;;;;;;5.68;1.50;;;;;;;;;;4918415;29;20039;-59
2024/01/24 02:40:46;;;;;;;5.78;1.67;;;;;;;;;;4918743;29;20171;-59
2024/01/24 02:43:11;;;;;;;4.28;1.48;;;;;;;;;;4925242;29;20035;-59
2024/01/24 02:45:36;;;;;;;3.40;1.42;;;;;;;;;;4921769;29;20039;-59
2024/01/24 02:48:02;;;;;;;3.08;1.63;;;;;;;;;;4920217;29;20043;-56
2024/01/24 02:50:27;;;;;;;3.80;2.05;;;;;;;;;;4920710;28;20126;-59
2024/01/24 02:52:53;;;;;;;4.82;1.48;;;;;;;;;;4921223;29;21049;-58
2024/01/24 02:55:18;;;;;;;3.40;1.50;;;;;;;;;;4917183;29;20028;-59
2024/01/24 02:57:44;;;;;;;3.67;1.20;;;;;;;;;;4920339;29;20032;-60
2024/01/24 03:00:12;;;;;;;4.05;1.15;;;;;;;;;;4932569;29;20042;-59
2024/01/24 03:02:38;;;;;;;2.92;0.85;;;;;;;;;;4932001;29;20039;-59
2024/01/24 03:05:05;;;;;;;3.97;1.13;;;;;;;;;;4935595;29;20095;-58
2024/01/24 03:07:31;;;;;;;3.95;1.85;;;;;;;;;;4936132;29;20091;-59
2024/01/24 03:09:56;;;;;;;4.40;1.92;;;;;;;;;;4930038;29;20048;-58
2024/01/24 03:12:22;;;;;;;2.17;0.65;;;;;;;;;;4920825;29;20035;-58
2024/01/24 03:14:47;;;;;;;3.05;1.33;;;;;;;;;;4919581;29;20119;-58
2024/01/24 03:17:13;;;;;;;3.13;1.88;;;;;;;;;;4918869;29;20066;-58
2024/01/24 03:19:38;;;;;;;3.83;1.67;;;;;;;;;;4911016;29;20036;-58
2024/01/24 03:22:04;;;;;;;6.47;1.92;;;;;;;;;;4916059;29;20402;-58
2024/01/24 03:24:29;;;;;;;2.40;0.90;;;;;;;;;;4919621;29;20447;-59
2024/01/24 03:26:55;;;;;;;5.32;1.48;;;;;;;;;;4917428;29;20028;-59
2024/01/24 03:29:20;;;;;;;1.83;1.25;;;;;;;;;;4919448;29;20044;-59
2024/01/24 03:31:46;;;;;;;4.63;2.47;;;;;;;;;;4921683;29;20035;-58
2024/01/24 03:34:11;;;;;;;5.40;1.42;;;;;;;;;;4909457;29;20060;-57
2024/01/24 03:36:37;;;;;;;3.42;2.50;;;;;;;;;;4917217;29;20081;-58
2024/01/24 03:39:03;;;;;;;4.63;1.90;;;;;;;;;;4914065;29;20039;-59
2024/01/24 03:41:29;;;;;;;4.85;1.25;;;;;;;;;;4938071;29;20063;-59
2024/01/24 03:43:54;;;;;;;4.32;1.77;;;;;;;;;;4937789;29;20051;-59
2024/01/24 03:46:20;;;;;;;4.53;1.60;;;;;;;;;;4941165;29;20546;-58
2024/01/24 03:48:45;;;;;;;3.47;1.33;;;;;;;;;;4937625;29;20102;-59
2024/01/24 03:51:11;;;;;;;6.85;2.03;;;;;;;;;;4937846;29;20426;-59
2024/01/24 03:53:37;;;;;;;4.93;2.05;;;;;;;;;;4935170;29;20024;-60
2024/01/24 03:56:03;;;;;;;4.25;2.30;;;;;;;;;;4934059;29;20090;-59
2024/01/24 03:58:28;;;;;;;4.40;1.42;;;;;;;;;;4939480;29;20034;-59
2024/01/24 04:00:55;;;;;;;5.25;1.50;;;;;;;;;;4938610;29;20043;-58
2024/01/24 04:03:20;;;;;;;3.67;1.75;;;;;;;;;;4936860;29;20417;-57
2024/01/24 04:05:46;;;;;;;4.35;1.23;;;;;;;;;;4939163;29;20130;-58
2024/01/24 04:08:12;;;;;;;5.25;1.45;;;;;;;;;;4939019;29;20470;-58
2024/01/24 04:10:37;;;;;;;6.38;1.95;;;;;;;;;;4935926;29;20094;-58
2024/01/24 04:13:03;;;;;;;3.47;2.28;;;;;;;;;;4938558;29;20054;-59
2024/01/24 04:15:28;;;;;;;5.47;1.40;;;;;;;;;;4944767;29;20051;-59
2024/01/24 04:17:54;;;;;;;5.13;1.50;;;;;;;;;;4936142;29;20042;-60
2024/01/24 04:20:20;;;;;;;4.07;1.65;;;;;;;;;;4937355;29;20044;-59
2024/01/24 04:22:45;;;;;;;7.10;1.63;;;;;;;;;;4931944;29;20023;-59
2024/01/24 04:25:11;;;;;;;3.65;1.20;;;;;;;;;;4938979;29;20502;-58
2024/01/24 04:27:37;;;;;;;5.00;1.08;;;;;;;;;;4936772;29;20434;-58
2024/01/24 04:30:04;;;;;;;4.75;1.42;;;;;;;;;;4937970;29;20048;-59
2024/01/24 04:32:29;;;;;;;4.13;1.83;;;;;;;;;;4936477;29;20111;-56
2024/01/24 04:34:55;;;;;;;4.35;2.38;;;;;;;;;;4934186;29;20070;-57
2024/01/24 04:37:20;;;;;;;3.45;1.00;;;;;;;;;;4943193;29;20039;-57
2024/01/24 04:39:45;;;;;;;6.30;1.83;;;;;;;;;;4939109;29;20039;-58
2024/01/24 04:42:11;;;;;;;5.30;2.13;;;;;;;;;;4934361;29;20204;-59
2024/01/24 04:44:36;;;;;;;5.50;2.33;;;;;;;;;;4937280;29;20122;-58
2024/01/24 04:47:02;;;;;;;5.55;1.05;;;;;;;;;;4933142;29;20035;-57
2024/01/24 04:49:27;;;;;;;6.45;1.00;;;;;;;;;;4937767;29;20043;-59
2024/01/24 04:51:52;;;;;;;3.10;1.55;;;;;;;;;;4930451;29;20032;-59
2024/01/24 04:54:18;;;;;;;4.90;1.05;;;;;;;;;;4936778;29;20095;-59
2024/01/24 04:56:46;;;;;;;3.10;1.88;;;;;;;;;;4935393;29;20023;-59
2024/01/24 04:59:15;;;;;;;5.15;1.30;;;;;;;;;;4935412;29;20059;-56
2024/01/24 05:01:41;;;;;;;3.10;1.13;;;;;;;;;;4935007;29;20034;-60
2024/01/24 05:04:07;;;;;;;3.30;1.08;;;;;;;;;;4937555;28;20561;-59
2024/01/24 05:06:33;;;;;;;3.40;1.65;;;;;;;;;;4939575;29;20032;-56
2024/01/24 05:08:58;;;;;;;4.03;1.17;;;;;;;;;;4937640;28;20475;-57
2024/01/24 05:11:23;;;;;;;5.90;1.90;;;;;;;;;;4933229;29;20084;-59
2024/01/24 05:13:49;;;;;;;7.68;2.45;;;;;;;;;;4933632;29;20028;-58
2024/01/24 05:16:15;;;;;;;4.70;2.53;;;;;;;;;;4938471;29;20047;-58
2024/01/24 05:18:41;;;;;;;5.10;2.67;;;;;;;;;;4935817;29;20062;-59
2024/01/24 05:21:06;;;;;;;4.40;2.03;;;;;;;;;;4915983;29;20051;-60
2024/01/24 05:23:32;;;;;;;3.88;2.65;;;;;;;;;;4918287;29;20398;-58
2024/01/24 05:25:57;;;;;;;9.68;2.35;;;;;;;;;;4919092;29;20064;-60
2024/01/24 05:28:23;;;;;;;6.35;5.15;;;;;;;;;;4917937;29;20036;-58
2024/01/24 05:30:48;;;;;;;2.78;1.52;;;;;;;;;;4915494;29;20036;-59
2024/01/24 05:33:14;;;;;;;2.85;1.85;;;;;;;;;;4919649;29;20028;-59
2024/01/24 05:35:39;;;;;;;6.30;1.60;;;;;;;;;;4931264;29;20567;-57
2024/01/24 05:38:04;;;;;;;4.88;1.98;;;;;;;;;;4937951;29;20023;-60
2024/01/24 05:40:30;;;;;;;4.13;1.60;;;;;;;;;;4937074;28;20086;-59
2024/01/24 05:42:55;;;;;;;5.97;2.33;;;;;;;;;;4937674;29;20390;-59
2024/01/24 05:45:22;;;;;;;5.53;2.42;;;;;;;;;;4936650;29;20395;-59
2024/01/24 05:47:48;;;;;;;4.80;2.35;;;;;;;;;;4936990;29;20114;-59
2024/01/24 05:50:13;;;;;;;6.00;2.20;;;;;;;;;;4934980;29;20111;-60
2024/01/24 05:52:40;;;;;;;5.85;2.70;;;;;;;;;;4937370;29;20114;-59
2024/01/24 05:55:06;;;;;;;7.50;3.72;;;;;;;;;;4936692;29;20035;-58
2024/01/24 05:57:32;;;;;;;4.93;3.25;;;;;;;;;;4936046;29;20027;-60
2024/01/24 05:59:57;;;;;;;8.30;2.90;;;;;;;;;;4936061;28;20032;-58
2024/01/24 06:02:23;;;;;;;7.38;3.70;;;;;;;;;;4932483;29;20054;-58
2024/01/24 06:04:48;;;;;;;6.45;3.92;;;;;;;;;;4928475;29;20063;-58
2024/01/24 06:07:14;;;;;;;4.95;2.67;;;;;;;;;;4925634;29;20032;-57
2024/01/24 06:09:39;;;;;;;7.15;3.83;;;;;;;;;;4929954;29;20056;-58
2024/01/24 06:12:05;;;;;;;7.68;2.83;;;;;;;;;;4932258;29;20044;-59
2024/01/24 06:14:30;;;;;;;9.18;4.45;;;;;;;;;;4933423;29;20094;-58
2024/01/24 06:16:56;;;;;;;5.15;3.08;;;;;;;;;;4932985;29;20103;-58
2024/01/24 06:19:21;;;;;;;5.93;3.90;;;;;;;;;;4932444;29;20040;-57
2024/01/24 06:21:46;;;;;;;6.40;3.10;;;;;;;;;;4936971;29;20032;-59
2024/01/24 06:24:12;;;;;;;4.75;2.65;;;;;;;;;;4934307;29;20049;-58
2024/01/24 06:26:38;;;;;;;6.60;3.25;;;;;;;;;;4934532;29;20031;-60
2024/01/24 06:29:03;;;;;;;7.35;4.07;;;;;;;;;;4930907;29;20047;-60
2024/01/24 06:31:29;;;;;;;6.93;3.47;;;;;;;;;;4932167;29;20071;-59
2024/01/24 06:33:54;;;;;;;5.80;3.33;;;;;;;;;;4929331;29;20032;-59
2024/01/24 06:36:20;;;;;;;4.72;2.78;;;;;;;;;;4929120;29;20035;-56
2024/01/24 06:38:46;;;;;;;5.53;3.15;;;;;;;;;;4932451;29;20637;-59
2024/01/24 06:41:13;;;;;;;5.75;3.03;;;;;;;;;;4931976;29;20138;-57
2024/01/24 06:43:41;;;;;;;8.25;3.25;;;;;;;;;;4930291;29;20064;-59
2024/01/24 06:46:08;;;;;;;10.90;3.75;;;;;;;;;;4931218;29;20947;-60
2024/01/24 06:48:33;;;;;;;13.10;6.53;;;;;;;;;;4933623;29;20075;-58
2024/01/24 06:50:59;;;;;;;11.13;4.55;;;;;;;;;;4934368;29;20043;-57
2024/01/24 06:53:24;;;;;;;7.13;5.22;;;;;;;;;;4933861;29;20036;-60
2024/01/24 06:55:50;;;;;;;8.77;5.53;;;;;;;;;;4932956;29;20118;-57
2024/01/24 06:58:15;;;;;;;13.05;5.30;;;;;;;;;;4936076;29;20604;-59
2024/01/24 07:00:41;;;;;;;12.43;5.72;;;;;;;;;;4931921;29;20040;-60
2024/01/24 07:03:06;;;;;;;8.90;5.35;;;;;;;;;;4932296;29;20036;-60
2024/01/24 07:05:32;;;;;;;8.13;5.13;;;;;;;;;;4935557;29;20128;-59
2024/01/24 07:07:57;;;;;;;12.43;7.82;;;;;;;;;;4935350;29;20024;-60
2024/01/24 07:10:23;;;;;;;12.48;9.60;;;;;;;;;;4932121;29;20048;-59
2024/01/24 07:12:49;;;;;;;11.23;6.53;;;;;;;;;;4936815;29;20055;-59
2024/01/24 07:15:18;;;;;;;8.88;5.03;;;;;;;;;;4932074;29;20052;-59
2024/01/24 07:17:44;;;;;;;7.07;4.07;;;;;;;;;;4937565;29;20454;-59
2024/01/24 07:20:11;;;;;;;9.82;4.10;;;;;;;;;;4934608;28;20375;-59
2024/01/24 07:22:38;;;;;;;7.38;3.50;;;;;;;;;;4934451;29;20039;-60
2024/01/24 07:25:07;;;;;;;11.88;3.85;;;;;;;;;;4933080;29;20055;-59
2024/01/24 07:27:33;;;;;;;12.05;4.60;;;;;;;;;;4937534;29;20047;-59
2024/01/24 07:29:58;;;;;;;9.90;5.88;;;;;;;;;;4931404;29;20047;-60
2024/01/24 07:32:24;;;;;;;12.25;4.97;;;;;;;;;;4934705;29;20038;-61
2024/01/24 07:34:49;;;;;;;13.35;6.65;;;;;;;;;;4933030;28;20036;-58
2024/01/24 07:37:15;;;;;;;10.90;6.28;;;;;;;;;;4932725;29;20490;-56
2024/01/24 07:39:41;;;;;;;9.95;5.28;;;;;;;;;;4934574;28;20553;-59
2024/01/24 07:42:07;;;;;;;12.05;7.28;;;;;;;;;;4937971;29;20035;-60
2024/01/24 07:44:33;;;;;;;11.60;5.97;;;;;;;;;;4934375;29;20044;-59
2024/01/24 07:46:58;;;;;;;11.15;5.70;;;;;;;;;;4932864;29;20090;-60
2024/01/24 07:49:23;;;;;;;15.50;8.50;;;;;;;;;;4934046;29;20031;-60
2024/01/24 07:51:49;;;;;;;12.95;6.78;;;;;;;;;;4931312;29;20763;-60
2024/01/24 07:54:17;;;;;;;15.27;7.75;;;;;;;;;;4938088;29;20099;-61
2024/01/24 07:56:43;;;;;;;13.80;8.18;;;;;;;;;;4935869;29;20058;-60
2024/01/24 07:59:12;;;;;;;14.13;8.27;;;;;;;;;;4935446;29;20044;-59
2024/01/24 08:01:37;;;;;;;11.75;7.72;;;;;;;;;;4936374;29;20031;-59
2024/01/24 08:04:03;;;;;;;16.05;9.73;;;;;;;;;;4935818;29;20326;-58
2024/01/24 08:06:28;;;;;;;26.15;14.35;;;;;;;;;;4936637;29;20122;-60
2024/01/24 08:08:54;;;;;;;14.15;9.93;;;;;;;;;;4937049;29;20034;-59
2024/01/24 08:11:21;;;;;;;14.02;9.02;;;;;;;;;;4934068;29;20059;-59
2024/01/24 08:13:47;;;;;;;20.27;11.80;;;;;;;;;;4937262;29;20031;-60
2024/01/24 08:16:12;;;;;;;13.55;6.60;;;;;;;;;;4937683;29;20186;-60
2024/01/24 08:18:37;;;;;;;12.98;6.95;;;;;;;;;;4936659;29;20030;-60
2024/01/24 08:21:03;;;;;;;9.93;4.80;;;;;;;;;;4936341;29;20044;-58
2024/01/24 08:23:29;;;;;;;12.30;6.05;;;;;;;;;;4936760;29;20024;-59
2024/01/24 08:25:54;;;;;;;7.28;5.57;;;;;;;;;;4936940;29;20039;-59
2024/01/24 08:28:19;;;;;;;7.57;5.22;;;;;;;;;;4932646;29;20043;-60
2024/01/24 08:30:45;;;;;;;11.40;3.97;;;;;;;;;;4933913;29;20043;-60
2024/01/24 08:33:10;;;;;;;10.02;7.60;;;;;;;;;;4932824;29;20041;-60
2024/01/24 08:35:36;;;;;;;11.50;6.18;;;;;;;;;;4934328;29;20389;-59
2024/01/24 08:38:04;;;;;;;9.30;5.38;;;;;;;;;;4937171;29;20027;-57
2024/01/24 08:40:30;;;;;;;9.98;5.43;;;;;;;;;;4933973;29;20402;-60
2024/01/24 08:42:55;;;;;;;13.68;9.10;;;;;;;;;;4937981;29;20036;-59
2024/01/24 08:45:21;;;;;;;13.98;6.95;;;;;;;;;;4936167;29;20042;-58
2024/01/24 08:47:46;;;;;;;12.68;6.40;;;;;;;;;;4936177;29;20024;-58
2024/01/24 08:50:12;;;;;;;11.43;6.43;;;;;;;;;;4936405;29;20039;-60
2024/01/24 08:52:38;;;;;;;11.25;6.25;;;;;;;;;;4938699;29;20028;-56
2024/01/24 08:55:06;;;;;;;7.68;3.70;;;;;;;;;;4936584;29;20028;-59
2024/01/24 08:57:31;;;;;;;8.00;5.07;;;;;;;;;;4938020;29;20028;-56
2024/01/24 08:59:57;;;;;;;12.02;6.20;;;;;;;;;;4937269;29;20099;-59
2024/01/24 09:02:22;;;;;;;19.40;8.90;;;;;;;;;;4940245;29;20502;-59
2024/01/24 09:04:50;;;;;;;18.23;9.43;;;;;;;;;;4930878;29;20044;-59
2024/01/24 09:07:15;;;;;;;16.80;7.28;;;;;;;;;;4938782;29;20039;-56
2024/01/24 09:09:41;;;;;;;12.55;7.18;;;;;;;;;;4936703;29;20450;-60
2024/01/24 09:12:06;;;;;;;13.70;6.15;;;;;;;;;;4930164;29;20027;-59
2024/01/24 09:14:32;;;;;;;11.13;4.57;;;;;;;;;;4932198;29;20395;-59
2024/01/24 09:16:57;;;;;;;11.40;5.45;;;;;;;;;;4934440;29;20579;-59
2024/01/24 09:19:23;;;;;;;10.38;3.13;;;;;;;;;;4933017;29;20606;-57
2024/01/24 09:21:48;;;;;;;9.15;4.25;;;;;;;;;;4935842;29;20034;-59
2024/01/24 09:24:14;;;;;;;6.63;3.40;;;;;;;;;;4934828;29;20059;-58
2024/01/24 09:26:39;;;;;;;5.38;4.15;;;;;;;;;;4934439;29;20039;-60
2024/01/24 09:29:04;;;;;;;8.77;5.57;;;;;;;;;;4935169;29;20064;-58
2024/01/24 09:31:31;;;;;;;10.68;5.00;;;;;;;;;;4938027;29;20087;-59
2024/01/24 09:33:56;;;;;;;9.30;5.13;;;;;;;;;;4936045;29;20023;-58
2024/01/24 09:36:23;;;;;;;15.52;4.65;;;;;;;;;;4934159;29;20092;-59
2024/01/24 09:38:49;;;;;;;11.60;5.32;;;;;;;;;;4935907;29;20031;-55
2024/01/24 09:41:19;;;;;;;11.00;6.72;;;;;;;;;;4930673;29;20087;-59
2024/01/24 09:43:47;;;;;;;10.25;7.55;;;;;;;;;;4937151;29;20027;-59
2024/01/24 09:46:19;;;;;;;9.73;7.45;;;;;;;;;;4936614;29;20163;-59
2024/01/24 09:48:45;;;;;;;11.18;5.75;;;;;;;;;;4932482;29;20039;-57
2024/01/24 09:51:12;;;;;;;12.05;6.55;;;;;;;;;;4937037;29;20039;-59
2024/01/24 09:53:39;;;;;;;7.03;4.43;;;;;;;;;;4935864;29;20023;-59
2024/01/24 09:56:06;;;;;;;8.20;5.35;;;;;;;;;;4934787;29;20086;-60
2024/01/24 09:58:31;;;;;;;7.00;4.18;;;;;;;;;;4933762;29;20028;-59
2024/01/24 10:00:58;;;;;;;7.28;3.15;;;;;;;;;;4926858;29;20043;-60
2024/01/24 10:03:24;;;;;;;3.40;2.08;;;;;;;;;;4934122;29;20032;-59
2024/01/24 10:05:50;;;;;;;4.25;1.60;;;;;;;;;;4931879;29;20128;-60
2024/01/24 10:08:18;;;;;;;3.70;0.95;;;;;;;;;;4931388;29;20059;-59
2024/01/24 10:10:45;;;;;;;3.60;0.93;;;;;;;;;;4929812;29;20106;-59
2024/01/24 10:13:10;;;;;;;2.53;1.00;;;;;;;;;;4942437;29;20038;-60
2024/01/24 10:15:37;;;;;;;2.83;1.98;;;;;;;;;;4928362;29;20052;-58
2024/01/24 10:18:03;;;;;;;4.20;0.50;;;;;;;;;;4930096;29;20027;-58
2024/01/24 10:20:29;;;;;;;1.73;1.02;;;;;;;;;;4931639;29;20067;-59
2024/01/24 10:22:54;;;;;;;1.90;0.90;;;;;;;;;;4938033;29;20020;-56
2024/01/24 10:25:21;;;;;;;1.60;1.50;;;;;;;;;;4932981;29;20072;-57
2024/01/24 10:27:46;;;;;;;1.63;1.48;;;;;;;;;;4936488;29;20028;-56
2024/01/24 10:30:14;;;;;;;1.27;0.47;;;;;;;;;;4933334;29;20052;-55
2024/01/24 10:32:45;;;;;;;1.90;0.35;;;;;;;;;;4933801;29;20038;-57
2024/01/24 10:35:11;;;;;;;1.13;0.30;;;;;;;;;;4934958;29;20044;-58
2024/01/24 10:37:36;;;;;;;3.78;0.60;;;;;;;;;;4934052;29;20521;-57
2024/01/24 10:40:04;;;;;;;3.08;0.70;;;;;;;;;;4924651;29;20040;-57
2024/01/24 10:42:35;;;;;;;1.13;0.43;;;;;;;;;;4929260;29;20478;-57
2024/01/24 10:45:04;;;;;;;1.15;0.52;;;;;;;;;;4932957;29;20044;-56
2024/01/24 10:47:30;;;;;;;1.15;0.65;;;;;;;;;;4931293;29;20035;-58
2024/01/24 10:49:56;;;;;;;1.67;0.30;;;;;;;;;;4934809;29;20051;-57
2024/01/24 10:52:24;;;;;;;2.70;0.82;;;;;;;;;;4932922;29;20035;-58
2024/01/24 10:54:50;;;;;;;1.15;0.90;;;;;;;;;;4936945;29;20044;-58
2024/01/24 10:57:18;;;;;;;1.27;0.52;;;;;;;;;;4929811;29;20063;-57
2024/01/24 10:59:44;;;;;;;1.20;0.95;;;;;;;;;;4935815;29;20047;-58
2024/01/24 11:02:10;;;;;;;1.95;0.77;;;;;;;;;;4933782;29;20032;-59
2024/01/24 11:04:37;;;;;;;1.25;0.90;;;;;;;;;;4930965;29;20044;-58
2024/01/24 11:07:11;;;;;;;1.65;0.85;;;;;;;;;;4940404;29;20099;-58
2024/01/24 11:09:53;;;;;;;1.70;1.60;;;;;;;;;;4937978;29;20083;-58
2024/01/24 11:12:21;;;;;;;2.05;0.80;;;;;;;;;;4938377;29;20505;-59
2024/01/24 11:14:47;;;;;;;1.75;0.90;;;;;;;;;;4933208;29;20067;-58
2024/01/24 11:17:13;;;;;;;2.33;0.73;;;;;;;;;;4931214;29;20074;-57
2024/01/24 11:19:38;;;;;;;2.28;1.55;;;;;;;;;;4929781;29;20402;-57
2024/01/24 11:22:11;;;;;;;2.97;1.67;;;;;;;;;;4938118;29;20454;-58
2024/01/24 11:24:40;;;;;;;1.70;0.80;;;;;;;;;;4935081;29;20040;-57
2024/01/24 11:27:27;;;;;;;1.63;1.05;;;;;;;;;;4938456;29;20090;-57
2024/01/24 11:29:52;;;;;;;;;;;;;;;;;;4925987;29;20036;-58
2024/01/24 11:32:39;;;;;;;3.03;1.25;;;;;;;;;;4934592;29;20388;-59
2024/01/24 11:35:23;;;;;;;;;;;;;;;;;;4933366;29;20165;-58
2024/01/24 11:37:49;;;;;;;3.22;1.55;;;;;;;;;;4934587;29;19915;-59
2024/01/24 11:40:15;;;;;;;3.35;2.13;;;;;;;;;;4934680;29;20048;-59
2024/01/24 11:42:42;;;;;;;2.47;1.60;;;;;;;;;;4931389;29;20035;-59
2024/01/24 11:45:15;;;;;;;5.80;2.08;;;;;;;;;;4935080;29;20047;-59
2024/01/24 11:47:40;;;;;;;4.15;1.27;;;;;;;;;;4933536;29;20178;-59
2024/01/24 11:50:08;;;;;;;5.25;1.75;;;;;;;;;;4938414;28;20126;-59
2024/01/24 11:52:33;;;;;;;3.67;1.52;;;;;;;;;;4932529;29;20035;-59
2024/01/24 11:54:58;;;;;;;3.55;1.40;;;;;;;;;;4936346;29;20034;-60
2024/01/24 11:57:24;;;;;;;3.40;1.35;;;;;;;;;;4938246;29;20030;-59
2024/01/24 11:59:49;;;;;;;3.33;1.63;;;;;;;;;;4933966;29;20098;-59
2024/01/24 12:02:15;;;;;;;2.70;1.83;;;;;;;;;;4931995;29;20675;-59
2024/01/24 12:04:40;;;;;;;2.83;2.63;;;;;;;;;;4931453;29;20056;-59
2024/01/24 12:07:07;;;;;;;3.60;1.42;;;;;;;;;;4931132;29;20055;-59
2024/01/24 12:09:32;;;;;;;2.00;1.15;;;;;;;;;;4934697;29;20114;-60
2024/01/24 12:11:58;;;;;;;3.00;1.58;;;;;;;;;;4937444;29;20028;-60
2024/01/24 12:14:24;;;;;;;3.13;1.73;;;;;;;;;;4933215;29;20048;-57
2024/01/24 12:16:50;;;;;;;4.60;2.00;;;;;;;;;;4932972;29;20051;-58
2024/01/24 12:19:16;;;;;;;3.20;1.27;;;;;;;;;;4936681;29;20079;-60
2024/01/24 12:21:42;;;;;;;4.88;1.65;;;;;;;;;;4937695;29;20038;-59
2024/01/24 12:24:09;;;;;;;2.63;1.85;;;;;;;;;;4932134;29;20035;-60
2024/01/24 12:26:35;;;;;;;2.42;1.77;;;;;;;;;;4931359;29;20027;-58
2024/01/24 12:29:03;;;;;;;3.17;1.02;;;;;;;;;;4932407;29;20406;-60
2024/01/24 12:31:29;;;;;;;3.00;0.98;;;;;;;;;;4932290;29;20098;-59
2024/01/24 12:33:55;;;;;;;4.45;3.78;;;;;;;;;;4931366;29;20031;-58
2024/01/24 12:36:22;;;;;;;3.28;1.17;;;;;;;;;;4928289;29;20035;-60
2024/01/24 12:38:50;;;;;;;2.60;1.75;;;;;;;;;;4933256;29;20462;-59
2024/01/24 12:41:16;;;;;;;3.08;1.35;;;;;;;;;;4935353;29;20442;-59
2024/01/24 12:43:42;;;;;;;2.58;1.38;;;;;;;;;;4937467;29;20473;-59
2024/01/24 12:46:08;;;;;;;1.70;1.38;;;;;;;;;;4934843;29;20028;-60
2024/01/24 12:48:34;;;;;;;2.22;1.23;;;;;;;;;;4937493;29;20418;-60
2024/01/24 12:50:59;;;;;;;2.92;1.63;;;;;;;;;;4929051;29;20039;-60
2024/01/24 12:53:25;;;;;;;3.50;2.78;;;;;;;;;;4928821;29;20047;-60
2024/01/24 12:55:50;;;;;;;5.45;1.85;;;;;;;;;;4937203;29;20517;-59
2024/01/24 12:58:16;;;;;;;2.75;1.25;;;;;;;;;;4936246;29;20035;-60
2024/01/24 13:00:41;;;;;;;2.25;1.15;;;;;;;;;;4933928;29;20059;-60
2024/01/24 13:03:07;;;;;;;2.33;1.85;;;;;;;;;;4938243;29;20031;-61
2024/01/24 13:05:32;;;;;;;3.33;1.40;;;;;;;;;;4936274;29;20044;-59
2024/01/24 13:07:58;;;;;;;2.60;2.33;;;;;;;;;;4931039;29;20028;-60
2024/01/24 13:10:25;;;;;;;1.67;1.05;;;;;;;;;;4936533;29;20047;-60
2024/01/24 13:12:51;;;;;;;1.73;1.45;;;;;;;;;;4936457;29;20040;-58
2024/01/24 13:15:17;;;;;;;3.33;1.65;;;;;;;;;;4930319;29;20135;-59
2024/01/24 13:17:42;;;;;;;2.33;1.63;;;;;;;;;;4922840;29;20115;-60
2024/01/24 13:20:09;;;;;;;2.92;2.03;;;;;;;;;;4936903;29;20052;-59
2024/01/24 13:22:35;;;;;;;2.35;2.08;;;;;;;;;;4931718;29;20027;-60
2024/01/24 13:25:01;;;;;;;1.75;1.23;;;;;;;;;;4934511;29;20619;-60
2024/01/24 13:27:28;;;;;;;2.45;1.65;;;;;;;;;;4934784;29;20035;-60
2024/01/24 13:29:53;;;;;;;2.08;1.25;;;;;;;;;;4934084;29;20141;-60
2024/01/24 13:32:19;;;;;;;2.28;1.77;;;;;;;;;;4934568;29;20027;-60
2024/01/24 13:34:44;;;;;;;3.53;1.65;;;;;;;;;;4935663;29;20128;-58
2024/01/24 13:37:10;;;;;;;2.40;1.67;;;;;;;;;;4934193;29;20550;-60
2024/01/24 13:39:36;;;;;;;4.10;1.73;;;;;;;;;;4935144;29;20035;-60
2024/01/24 13:42:01;;;;;;;3.50;1.90;;;;;;;;;;4934764;29;20031;-61
2024/01/24 13:44:26;;;;;;;2.78;1.27;;;;;;;;;;4935634;29;20050;-60
2024/01/24 13:46:52;;;;;;;2.63;1.35;;;;;;;;;;4933580;29;20024;-59
2024/01/24 13:49:18;;;;;;;2.53;0.95;;;;;;;;;;4937820;29;20686;-60
2024/01/24 13:51:44;;;;;;;2.15;1.60;;;;;;;;;;4932884;29;20024;-60
2024/01/24 13:54:09;;;;;;;1.80;0.88;;;;;;;;;;4937063;29;20054;-60
2024/01/24 13:56:35;;;;;;;2.28;1.48;;;;;;;;;;4935451;29;20024;-60
2024/01/24 13:59:00;;;;;;;4.13;0.43;;;;;;;;;;4934956;29;20106;-60
2024/01/24 14:01:26;;;;;;;2.83;1.50;;;;;;;;;;4936174;29;20042;-60
2024/01/24 14:03:51;;;;;;;3.28;1.38;;;;;;;;;;4936991;29;20493;-59
2024/01/24 14:06:19;;;;;;;1.70;1.55;;;;;;;;;;4935531;29;20043;-60
2024/01/24 14:08:45;;;;;;;1.27;0.73;;;;;;;;;;4932589;29;20028;-58
2024/01/24 14:11:10;;;;;;;0.88;0.88;;;;;;;;;;4935943;29;20051;-60
2024/01/24 14:13:37;;;;;;;3.55;0.95;;;;;;;;;;4936809;29;20031;-60
2024/01/24 14:16:03;;;;;;;1.33;1.20;;;;;;;;;;4934324;29;21134;-60
2024/01/24 14:18:29;;;;;;;2.03;1.13;;;;;;;;;;4938275;29;20031;-60
2024/01/24 14:20:54;;;;;;;0.85;0.47;;;;;;;;;;4934979;29;20123;-60
2024/01/24 14:23:20;;;;;;;6.80;0.77;;;;;;;;;;4935095;29;20039;-60
2024/01/24 14:25:45;;;;;;;1.80;1.38;;;;;;;;;;4925823;29;20032;-60
2024/01/24 14:28:11;;;;;;;1.85;1.38;;;;;;;;;;4932592;29;20039;-59
2024/01/24 14:30:36;;;;;;;0.63;0.22;;;;;;;;;;4922887;29;20046;-59
2024/01/24 14:33:03;;;;;;;0.93;0.75;;;;;;;;;;4936744;29;20125;-60